createdAt,value
2022-10-11T00:00:54.033Z,66.36
2022-10-11T00:03:34.252Z,67.64
2022-10-11T00:06:03.994Z,55.81
2022-10-11T00:08:33.289Z,52.08
2022-10-11T00:11:05.920Z,52.94
2022-10-11T00:13:34.782Z,54.40
2022-10-11T00:16:09.323Z,55.80
2022-10-11T00:18:38.177Z,56.75
2022-10-11T00:21:10.621Z,58.16
2022-10-11T00:23:39.330Z,58.99
2022-10-11T00:26:11.681Z,66.67
2022-10-11T00:28:40.672Z,67.29
2022-10-11T00:31:13.597Z,57.16
2022-10-11T00:33:41.429Z,53.34
2022-10-11T00:36:10.600Z,54.28
2022-10-11T00:38:38.305Z,55.74
2022-10-11T00:41:06.517Z,57.39
2022-10-11T00:43:35.713Z,58.63
2022-10-11T00:46:13.485Z,65.67
2022-10-11T00:48:48.219Z,66.65
2022-10-11T00:51:30.698Z,57.14
2022-10-11T00:54:03.317Z,53.55
2022-10-11T00:56:35.989Z,54.68
2022-10-11T00:59:13.691Z,56.43
2022-10-11T01:01:41.623Z,57.78
2022-10-11T01:04:09.423Z,64.97
2022-10-11T01:06:37.201Z,65.35
2022-10-11T01:09:05.402Z,56.01
2022-10-11T01:11:36.508Z,52.84
2022-10-11T01:14:35.949Z,53.81
2022-10-11T01:17:26.476Z,55.01
2022-10-11T01:19:59.875Z,56.47
2022-10-11T01:23:11.128Z,58.39
2022-10-11T01:26:36.060Z,68.97
2022-10-11T01:29:33.063Z,64.95
2022-10-11T01:32:17.686Z,54.32
2022-10-11T01:34:45.300Z,52.56
2022-10-11T01:37:32.976Z,54.17
2022-10-11T01:40:11.809Z,54.96
2022-10-11T01:42:42.418Z,56.86
2022-10-11T01:45:17.145Z,58.90
2022-10-11T01:47:46.237Z,66.63
2022-10-11T01:50:38.993Z,66.96
2022-10-11T01:53:40.196Z,57.40
2022-10-11T01:56:22.920Z,54.59
2022-10-11T01:59:41.553Z,56.29
2022-10-11T02:02:52.453Z,57.19
2022-10-11T02:05:38.918Z,67.95
2022-10-11T02:08:26.845Z,64.73
2022-10-11T02:11:05.913Z,54.97
2022-10-11T02:13:46.215Z,53.42
2022-10-11T02:16:21.548Z,55.23
2022-10-11T02:18:53.063Z,56.88
2022-10-11T02:21:24.422Z,64.13
2022-10-11T02:24:05.962Z,66.05
2022-10-11T02:26:36.037Z,57.43
2022-10-11T02:29:09.733Z,54.94
2022-10-11T02:31:39.602Z,56.18
2022-10-11T02:34:25.798Z,57.90
2022-10-11T02:37:09.041Z,65.61
2022-10-11T02:39:52.390Z,67.43
2022-10-11T02:42:30.975Z,62.44
2022-10-11T02:45:06.931Z,55.99
2022-10-11T02:47:35.419Z,54.47
2022-10-11T02:50:03.805Z,57.89
2022-10-11T02:52:31.669Z,63.66
2022-10-11T02:54:59.517Z,63.27
2022-10-11T02:57:27.148Z,59.26
2022-10-11T02:59:54.848Z,55.13
2022-10-11T03:02:22.632Z,57.64
2022-10-11T03:04:50.349Z,60.27
2022-10-11T03:07:18.066Z,65.80
2022-10-11T03:09:45.708Z,65.01
2022-10-11T03:12:13.442Z,60.06
2022-10-11T03:14:41.157Z,55.52
2022-10-11T03:17:34.587Z,56.58
2022-10-11T03:19:56.578Z,59.99
2022-10-11T03:22:24.364Z,65.50
2022-10-11T03:24:52.113Z,63.80
2022-10-11T03:27:20.018Z,59.94
2022-10-11T03:29:47.762Z,55.75
2022-10-11T03:32:15.485Z,57.29
2022-10-11T03:34:43.161Z,60.68
2022-10-11T03:37:10.827Z,66.05
2022-10-11T03:39:38.568Z,63.79
2022-10-11T03:42:06.251Z,59.18
2022-10-11T03:44:34.099Z,55.58
2022-10-11T03:47:01.784Z,57.38
2022-10-11T03:49:29.425Z,60.65
2022-10-11T03:51:57.123Z,66.40
2022-10-11T03:54:24.852Z,64.02
2022-10-11T03:56:52.623Z,58.80
2022-10-11T03:59:20.391Z,55.56
2022-10-11T04:01:48.055Z,57.82
2022-10-11T04:04:15.945Z,61.36
2022-10-11T04:06:43.681Z,66.53
2022-10-11T04:09:11.395Z,63.61
2022-10-11T04:11:39.212Z,57.64
2022-10-11T04:14:06.983Z,57.03
2022-10-11T04:16:35.381Z,60.40
2022-10-11T04:19:03.152Z,64.99
2022-10-11T04:21:30.980Z,63.54
2022-10-11T04:23:58.666Z,57.08
2022-10-11T04:26:26.483Z,57.63
2022-10-11T04:28:54.362Z,60.57
2022-10-11T04:31:22.822Z,64.49
2022-10-11T04:33:50.661Z,62.90
2022-10-11T04:36:18.496Z,57.18
2022-10-11T04:38:46.201Z,57.59
2022-10-11T04:41:15.423Z,60.10
2022-10-11T04:43:43.116Z,64.10
2022-10-11T04:46:11.623Z,62.24
2022-10-11T04:48:39.788Z,56.93
2022-10-11T04:51:07.484Z,57.84
2022-10-11T04:53:35.171Z,60.95
2022-10-11T04:56:11.701Z,65.22
2022-10-11T04:58:43.083Z,61.52
2022-10-11T05:01:11.711Z,56.77
2022-10-11T05:03:39.855Z,57.42
2022-10-11T05:06:08.278Z,60.98
2022-10-11T05:08:36.405Z,65.33
2022-10-11T05:11:10.609Z,62.84
2022-10-11T05:13:38.996Z,56.67
2022-10-11T05:16:10.908Z,55.84
2022-10-11T05:18:40.446Z,57.43
2022-10-11T05:21:20.816Z,59.75
2022-10-11T05:23:51.161Z,65.64
2022-10-11T05:26:20.320Z,64.25
2022-10-11T05:28:48.548Z,56.89
2022-10-11T05:31:17.523Z,57.02
2022-10-11T05:33:45.320Z,59.49
2022-10-11T05:36:13.618Z,63.96
2022-10-11T05:38:41.706Z,65.25
2022-10-11T05:41:14.902Z,57.70
2022-10-11T05:43:44.638Z,56.92
2022-10-11T05:46:13.269Z,59.76
2022-10-11T05:48:41.640Z,63.86
2022-10-11T05:51:12.083Z,63.49
2022-10-11T05:53:39.872Z,58.66
2022-10-11T05:56:23.391Z,54.47
2022-10-11T05:58:52.287Z,56.45
2022-10-11T06:01:25.379Z,59.61
2022-10-11T06:03:54.086Z,64.20
2022-10-11T06:06:22.203Z,61.56
2022-10-11T06:08:50.174Z,55.76
2022-10-11T06:11:25.414Z,56.16
2022-10-11T06:13:55.240Z,59.24
2022-10-11T06:16:22.959Z,61.98
2022-10-11T06:18:56.466Z,65.59
2022-10-11T06:21:25.500Z,61.63
2022-10-11T06:23:59.941Z,56.24
2022-10-11T06:26:30.448Z,56.93
2022-10-11T06:28:58.899Z,59.28
2022-10-11T06:31:26.895Z,62.79
2022-10-11T06:33:54.542Z,63.81
2022-10-11T06:36:22.275Z,58.31
2022-10-11T06:38:55.224Z,55.74
2022-10-11T06:41:27.202Z,57.96
2022-10-11T06:43:56.068Z,60.65
2022-10-11T06:46:26.998Z,63.10
2022-10-11T06:48:56.662Z,63.99
2022-10-11T06:51:25.913Z,56.81
2022-10-11T06:53:57.973Z,55.42
2022-10-11T06:56:28.519Z,57.53
2022-10-11T06:58:58.930Z,60.07
2022-10-11T07:01:27.726Z,62.19
2022-10-11T07:03:58.295Z,62.91
2022-10-11T07:06:29.083Z,58.37
2022-10-11T07:08:59.043Z,54.15
2022-10-11T07:11:29.265Z,56.11
2022-10-11T07:14:04.631Z,58.45
2022-10-11T07:16:32.370Z,60.59
2022-10-11T07:19:03.302Z,62.18
2022-10-11T07:21:34.199Z,63.87
2022-10-11T07:24:03.457Z,60.50
2022-10-11T07:26:37.635Z,53.94
2022-10-11T07:29:09.408Z,53.55
2022-10-11T07:31:40.717Z,55.73
2022-10-11T07:34:10.050Z,57.97
2022-10-11T07:36:38.034Z,59.34
2022-10-11T07:39:08.404Z,60.21
2022-10-11T07:41:39.683Z,60.72
2022-10-11T07:44:09.599Z,61.74
2022-10-11T07:46:37.320Z,62.31
2022-10-11T07:49:05.007Z,63.01
2022-10-11T07:51:33.187Z,58.64
2022-10-11T07:54:04.777Z,53.68
2022-10-11T07:56:36.778Z,54.85
2022-10-11T07:59:04.654Z,56.43
2022-10-11T08:01:33.331Z,57.20
2022-10-11T08:04:01.639Z,57.98
2022-10-11T08:06:32.834Z,58.65
2022-10-11T08:09:01.968Z,59.13
2022-10-11T08:11:35.468Z,59.36
2022-10-11T08:14:09.055Z,58.85
2022-10-11T08:16:39.000Z,58.47
2022-10-11T08:19:07.485Z,58.56
2022-10-11T08:21:35.353Z,58.62
2022-10-11T08:24:05.689Z,58.75
2022-10-11T08:26:34.518Z,58.58
2022-10-11T08:29:03.535Z,58.58
2022-10-11T08:31:33.317Z,58.27
2022-10-11T08:34:01.461Z,56.87
2022-10-11T08:36:29.255Z,56.35
2022-10-11T08:38:58.398Z,56.00
2022-10-11T08:41:30.640Z,55.35
2022-10-11T08:44:20.360Z,55.49
2022-10-11T08:47:00.453Z,56.34
2022-10-11T08:49:33.298Z,56.35
2022-10-11T08:52:21.696Z,56.58
2022-10-11T08:54:58.231Z,56.31
2022-10-11T08:57:31.411Z,55.78
2022-10-11T09:00:04.854Z,55.16
2022-10-11T09:03:08.391Z,55.24
2022-10-11T09:05:53.594Z,55.28
2022-10-11T09:08:53.998Z,55.39
2022-10-11T09:11:49.206Z,55.15
2022-10-11T09:14:54.593Z,54.78
2022-10-11T09:17:47.349Z,54.14
2022-10-11T09:20:52.486Z,53.44
2022-10-11T09:23:31.538Z,54.20
2022-10-11T09:26:08.437Z,54.41
2022-10-11T09:29:06.643Z,54.82
2022-10-11T09:31:34.747Z,54.73
2022-10-11T09:34:15.073Z,54.59
2022-10-11T09:37:16.383Z,53.97
2022-10-11T09:40:10.916Z,54.25
2022-10-11T09:42:38.570Z,54.20
2022-10-11T09:45:23.848Z,54.15
2022-10-11T09:47:56.085Z,54.16
2022-10-11T09:50:36.769Z,53.13
2022-10-11T09:53:09.072Z,52.67
2022-10-11T09:55:41.226Z,52.60
2022-10-11T09:58:33.829Z,52.43
2022-10-11T10:01:31.530Z,51.89
2022-10-11T10:04:25.361Z,52.53
2022-10-11T10:07:14.375Z,52.64
2022-10-11T10:09:44.335Z,52.29
2022-10-11T10:12:18.462Z,52.59
2022-10-11T10:15:14.049Z,52.60
2022-10-11T10:17:53.121Z,53.43
2022-10-11T10:20:40.628Z,54.02
2022-10-11T10:23:26.024Z,54.46
2022-10-11T10:26:13.407Z,54.46
2022-10-11T10:29:11.676Z,54.15
2022-10-11T10:34:55.419Z,52.62
2022-10-11T10:37:33.679Z,52.10
2022-10-11T10:40:14.676Z,51.53
2022-10-11T10:42:42.443Z,51.41
2022-10-11T10:45:31.553Z,51.31
2022-10-11T10:48:23.836Z,51.69
2022-10-11T10:51:44.987Z,50.91
2022-10-11T10:54:38.071Z,49.05
2022-10-11T10:57:58.207Z,47.92
2022-10-11T11:00:37.085Z,47.72
2022-10-11T11:03:19.642Z,48.06
2022-10-11T11:06:02.628Z,47.32
2022-10-11T11:08:53.159Z,46.52
2022-10-11T11:11:55.937Z,45.84
2022-10-11T11:14:52.701Z,45.54
2022-10-11T11:18:01.680Z,46.20
2022-10-11T11:20:50.097Z,46.09
2022-10-11T11:23:27.603Z,44.95
2022-10-11T11:26:44.255Z,43.90
2022-10-11T11:29:55.921Z,43.87
2022-10-11T11:33:01.725Z,45.56
2022-10-11T11:35:39.855Z,47.82
2022-10-11T11:38:18.615Z,48.49
2022-10-11T11:40:54.737Z,48.87
2022-10-11T11:43:36.592Z,48.57
2022-10-11T11:46:18.028Z,48.82
2022-10-11T11:48:48.916Z,48.26
2022-10-11T11:51:32.859Z,47.85
2022-10-11T11:54:29.017Z,47.89
2022-10-11T11:57:30.525Z,48.84
2022-10-11T12:00:15.411Z,50.17
2022-10-11T12:03:05.030Z,51.22
2022-10-11T12:05:36.317Z,51.86
2022-10-11T12:08:25.903Z,52.45
2022-10-11T12:11:00.431Z,53.35
2022-10-11T12:13:37.932Z,53.34
2022-10-11T12:16:14.315Z,52.62
2022-10-11T12:19:03.091Z,52.21
2022-10-11T12:21:36.825Z,51.86
2022-10-11T12:24:20.528Z,51.37
2022-10-11T12:26:58.149Z,50.90
2022-10-11T12:29:49.781Z,50.87
2022-10-11T12:32:27.469Z,50.29
2022-10-11T12:35:33.633Z,50.83
2022-10-11T12:38:28.909Z,51.30
2022-10-11T12:41:22.100Z,51.80
2022-10-11T12:43:49.776Z,52.27
2022-10-11T12:46:55.573Z,52.11
2022-10-11T12:49:41.721Z,52.41
2022-10-11T12:52:51.201Z,53.02
2022-10-11T12:56:27.806Z,53.68
2022-10-11T12:59:04.680Z,52.62
2022-10-11T13:01:55.103Z,52.38
2022-10-11T13:04:33.441Z,52.05
2022-10-11T13:07:12.915Z,51.61
2022-10-11T13:09:48.810Z,51.20
2022-10-11T13:12:26.194Z,51.06
2022-10-11T13:15:07.210Z,51.42
2022-10-11T13:17:38.976Z,51.57
2022-10-11T13:20:15.848Z,51.71
2022-10-11T13:22:50.315Z,51.92
2022-10-11T13:25:24.127Z,53.03
2022-10-11T13:27:55.732Z,53.59
2022-10-11T13:30:32.516Z,53.86
2022-10-11T13:33:05.859Z,53.96
2022-10-11T13:35:37.416Z,54.08
2022-10-11T13:38:09.376Z,54.39
2022-10-11T13:40:38.807Z,54.82
2022-10-11T13:43:06.714Z,55.05
2022-10-11T13:45:37.171Z,55.27
2022-10-11T13:48:14.464Z,55.65
2022-10-11T13:50:46.450Z,56.22
2022-10-11T13:53:14.097Z,56.59
2022-10-11T13:55:41.696Z,56.70
2022-10-11T13:58:26.626Z,57.05
2022-10-11T14:01:07.656Z,57.11
2022-10-11T14:03:49.086Z,56.65
2022-10-11T14:06:16.812Z,57.32
2022-10-11T14:08:51.756Z,57.42
2022-10-11T14:11:39.117Z,57.51
2022-10-11T14:14:35.450Z,57.87
2022-10-11T14:17:15.542Z,58.36
2022-10-11T14:19:47.353Z,59.09
2022-10-11T14:22:17.978Z,59.61
2022-10-11T14:24:48.821Z,59.94
2022-10-11T14:27:23.211Z,60.67
2022-10-11T14:30:12.904Z,60.95
2022-10-11T14:32:42.358Z,61.69
2022-10-11T14:35:29.931Z,64.55
2022-10-11T14:37:58.950Z,61.04
2022-10-11T14:40:31.032Z,53.65
2022-10-11T14:42:58.868Z,53.14
2022-10-11T14:45:27.807Z,55.67
2022-10-11T14:47:56.449Z,57.70
2022-10-11T14:50:39.371Z,59.38
2022-10-11T14:53:10.378Z,60.83
2022-10-11T14:55:40.784Z,63.78
2022-10-11T14:58:11.728Z,61.67
2022-10-11T15:00:39.940Z,54.22
2022-10-11T15:03:07.861Z,53.38
2022-10-11T15:05:37.174Z,55.85
2022-10-11T15:08:07.787Z,58.25
2022-10-11T15:10:40.015Z,59.48
2022-10-11T15:13:09.285Z,60.82
2022-10-11T15:15:40.989Z,62.30
2022-10-11T15:18:13.009Z,64.12
2022-10-11T15:20:44.620Z,62.28
2022-10-11T15:23:12.655Z,53.76
2022-10-11T15:25:42.688Z,52.22
2022-10-11T15:28:29.438Z,53.69
2022-10-11T15:30:57.949Z,56.55
2022-10-11T15:33:26.477Z,58.94
2022-10-11T15:35:54.234Z,60.96
2022-10-11T15:38:25.413Z,65.39
2022-10-11T15:40:53.938Z,62.13
2022-10-11T15:43:24.744Z,54.98
2022-10-11T15:45:54.902Z,53.16
2022-10-11T15:48:26.549Z,55.36
2022-10-11T15:50:54.793Z,57.64
2022-10-11T15:53:31.172Z,59.43
2022-10-11T15:56:07.356Z,63.83
2022-10-11T15:58:40.078Z,62.28
2022-10-11T16:01:18.115Z,54.69
2022-10-11T16:03:48.470Z,53.38
2022-10-11T16:06:18.531Z,54.74
2022-10-11T16:08:47.868Z,56.46
2022-10-11T16:11:15.713Z,58.62
2022-10-11T16:13:43.510Z,66.05
2022-10-11T16:16:11.594Z,66.88
2022-10-11T16:18:39.946Z,57.05
2022-10-11T16:21:10.923Z,53.51
2022-10-11T16:23:38.991Z,54.79
2022-10-11T16:26:13.466Z,56.98
2022-10-11T16:28:42.235Z,59.51
2022-10-11T16:31:18.314Z,64.99
2022-10-11T16:33:46.861Z,64.86
2022-10-11T16:36:40.246Z,56.01
2022-10-11T16:39:16.048Z,53.87
2022-10-11T16:41:45.339Z,56.49
2022-10-11T16:44:16.803Z,58.90
2022-10-11T16:46:49.036Z,64.94
2022-10-11T16:49:19.846Z,64.36
2022-10-11T16:51:47.913Z,57.35
2022-10-11T16:54:20.413Z,54.24
2022-10-11T16:56:52.716Z,56.17
2022-10-11T16:59:21.098Z,58.50
2022-10-11T17:01:49.269Z,60.96
2022-10-11T17:04:17.195Z,67.03
2022-10-11T17:06:45.084Z,65.78
2022-10-11T17:09:14.099Z,61.86
2022-10-11T17:11:43.065Z,55.44
2022-10-11T17:14:13.719Z,53.58
2022-10-11T17:16:41.453Z,55.80
2022-10-11T17:19:15.537Z,58.63
2022-10-11T17:21:43.441Z,64.73
2022-10-11T17:24:11.157Z,65.41
2022-10-11T17:26:39.009Z,57.98
2022-10-11T17:29:06.805Z,54.60
2022-10-11T17:31:36.939Z,57.42
2022-10-11T17:34:04.948Z,59.59
2022-10-11T17:36:36.598Z,65.41
2022-10-11T17:39:10.278Z,65.23
2022-10-11T17:41:39.065Z,57.47
2022-10-11T17:44:07.014Z,54.89
2022-10-11T17:46:34.891Z,57.41
2022-10-11T17:49:06.934Z,59.65
2022-10-11T17:51:38.353Z,65.40
2022-10-11T17:54:06.933Z,66.31
2022-10-11T17:56:37.974Z,57.89
2022-10-11T17:59:08.421Z,55.10
2022-10-11T18:01:37.698Z,56.83
2022-10-11T18:04:06.389Z,59.27
2022-10-11T18:06:43.333Z,64.90
2022-10-11T18:09:14.209Z,64.66
2022-10-11T18:11:43.466Z,57.34
2022-10-11T18:14:12.122Z,54.66
2022-10-11T18:16:41.288Z,56.99
2022-10-11T18:19:14.581Z,59.59
2022-10-11T18:21:43.469Z,64.98
2022-10-11T18:24:16.711Z,64.65
2022-10-11T18:26:45.671Z,57.06
2022-10-11T18:29:18.238Z,55.36
2022-10-11T18:31:50.460Z,58.34
2022-10-11T18:34:18.749Z,60.93
2022-10-11T18:36:48.397Z,66.32
2022-10-11T18:39:16.903Z,65.63
2022-10-11T18:41:45.356Z,60.62
2022-10-11T18:44:16.347Z,54.17
2022-10-11T18:46:45.909Z,54.03
2022-10-11T18:49:14.374Z,57.69
2022-10-11T18:51:47.012Z,60.16
2022-10-11T18:54:20.253Z,65.78
2022-10-11T18:56:49.768Z,64.87
2022-10-11T18:59:17.781Z,57.19
2022-10-11T19:01:45.822Z,55.62
2022-10-11T19:04:18.614Z,58.41
2022-10-11T19:06:49.435Z,63.43
2022-10-11T19:09:24.989Z,63.31
2022-10-11T19:11:56.103Z,56.75
2022-10-11T19:14:29.117Z,55.43
2022-10-11T19:16:59.003Z,57.76
2022-10-11T19:19:32.381Z,60.35
2022-10-11T19:22:03.681Z,65.98
2022-10-11T19:24:34.802Z,65.68
2022-10-11T19:27:03.170Z,60.30
2022-10-11T19:29:32.798Z,54.83
2022-10-11T19:32:03.913Z,55.31
2022-10-11T19:34:33.191Z,58.53
2022-10-11T19:37:05.453Z,63.75
2022-10-11T19:39:33.267Z,63.84
2022-10-11T19:42:01.384Z,57.74
2022-10-11T19:44:30.057Z,55.52
2022-10-11T19:47:02.778Z,58.10
2022-10-11T19:49:33.881Z,63.66
2022-10-11T19:52:01.690Z,64.12
2022-10-11T19:54:29.598Z,56.35
2022-10-11T19:56:57.486Z,54.83
2022-10-11T19:59:26.934Z,57.18
2022-10-11T20:01:56.032Z,59.45
2022-10-11T20:04:52.052Z,65.55
2022-10-11T20:07:12.368Z,65.57
2022-10-11T20:09:40.033Z,57.34
2022-10-11T20:12:08.268Z,56.02
2022-10-11T20:14:36.236Z,57.73
2022-10-11T20:17:04.001Z,60.35
2022-10-11T20:19:33.233Z,65.74
2022-10-11T20:22:01.763Z,65.53
2022-10-11T20:24:33.572Z,61.23
2022-10-11T20:27:06.764Z,54.64
2022-10-11T20:29:35.231Z,53.51
2022-10-11T20:32:02.887Z,55.53
2022-10-11T20:34:30.708Z,58.05
2022-10-11T20:36:59.030Z,64.84
2022-10-11T20:39:27.017Z,66.67
2022-10-11T20:41:55.078Z,57.99
2022-10-11T20:44:22.809Z,54.31
2022-10-11T20:46:50.682Z,56.19
2022-10-11T20:49:20.087Z,59.04
2022-10-11T20:51:48.525Z,64.93
2022-10-11T20:54:16.778Z,66.23
2022-10-11T20:56:44.710Z,61.65
2022-10-11T20:59:12.502Z,54.78
2022-10-11T21:01:41.688Z,53.37
2022-10-11T21:04:18.948Z,56.13
2022-10-11T21:06:48.764Z,58.65
2022-10-11T21:09:17.560Z,64.99
2022-10-11T21:11:45.922Z,65.31
2022-10-11T21:14:14.255Z,60.66
2022-10-11T21:16:42.191Z,54.58
2022-10-11T21:19:14.398Z,53.81
2022-10-11T21:21:43.682Z,56.62
2022-10-11T21:24:11.420Z,59.21
2022-10-11T21:26:39.376Z,65.40
2022-10-11T21:29:08.455Z,66.24
2022-10-11T21:31:36.436Z,58.13
2022-10-11T21:34:05.261Z,55.06
2022-10-11T21:36:33.668Z,56.95
2022-10-11T21:39:01.336Z,59.60
2022-10-11T21:41:30.307Z,65.28
2022-10-11T21:43:58.561Z,67.23
2022-10-11T21:46:53.978Z,58.63
2022-10-11T21:49:18.535Z,55.25
2022-10-11T21:51:46.360Z,57.80
2022-10-11T21:54:14.156Z,60.60
2022-10-11T21:56:42.743Z,66.81
2022-10-11T21:59:12.647Z,65.38
2022-10-11T22:01:43.275Z,57.72
2022-10-11T22:04:11.803Z,55.84
2022-10-11T22:06:40.232Z,58.17
2022-10-11T22:09:08.920Z,63.92
2022-10-11T22:11:37.483Z,64.18
2022-10-11T22:14:05.242Z,56.54
2022-10-11T22:16:34.646Z,55.09
2022-10-11T22:19:02.583Z,57.21
2022-10-11T22:21:30.395Z,59.64
2022-10-11T22:23:58.506Z,65.36
2022-10-11T22:26:32.531Z,65.07
2022-10-11T22:29:00.706Z,60.13
2022-10-11T22:31:30.290Z,54.17
2022-10-11T22:34:00.552Z,54.30
2022-10-11T22:36:30.719Z,56.32
2022-10-11T22:38:59.222Z,59.59
2022-10-11T22:41:26.992Z,65.65
2022-10-11T22:43:54.709Z,63.76
2022-10-11T22:46:22.407Z,56.93
2022-10-11T22:48:50.094Z,54.54
2022-10-11T22:51:17.787Z,57.83
2022-10-11T22:53:45.482Z,60.34
2022-10-11T22:56:13.232Z,66.82
2022-10-11T22:58:40.893Z,66.75
2022-10-11T23:01:15.912Z,57.39
2022-10-11T23:03:43.703Z,54.94
2022-10-11T23:06:11.476Z,57.23
2022-10-11T23:08:39.240Z,59.51
2022-10-11T23:11:07.729Z,66.37
2022-10-11T23:13:35.928Z,65.19
2022-10-11T23:16:12.320Z,57.82
2022-10-11T23:18:40.409Z,54.84
2022-10-11T23:21:10.250Z,57.08
2022-10-11T23:23:40.006Z,59.16
2022-10-11T23:26:12.861Z,66.25
2022-10-11T23:28:41.689Z,67.27
2022-10-11T23:31:17.319Z,62.21
2022-10-11T23:33:46.857Z,54.98
2022-10-11T23:36:24.328Z,53.92
2022-10-11T23:38:55.783Z,56.38
2022-10-11T23:41:27.492Z,59.80
2022-10-11T23:43:55.367Z,66.36
2022-10-11T23:46:23.353Z,64.74
2022-10-11T23:48:51.152Z,59.21
2022-10-11T23:51:18.827Z,54.88
2022-10-11T23:53:46.640Z,56.67
2022-10-11T23:56:14.295Z,59.67
2022-10-11T23:58:41.969Z,65.77
